sensor_id;sensor_type;location;lat;lon;timestamp;temperature;humidity
29721;DHT22;23665;51.044;3.748;2023-01-29T00:01:09;2.60;99.90
29721;DHT22;23665;51.044;3.748;2023-01-29T00:03:35;2.50;99.90
29721;DHT22;23665;51.044;3.748;2023-01-29T00:06:04;2.50;99.90
29721;DHT22;23665;51.044;3.748;2023-01-29T00:08:33;2.50;99.90
29721;DHT22;23665;51.044;3.748;2023-01-29T00:11:06;2.60;99.90
29721;DHT22;23665;51.044;3.748;2023-01-29T00:13:32;2.70;99.90
29721;DHT22;23665;51.044;3.748;2023-01-29T00:16:02;2.70;99.90
29721;DHT22;23665;51.044;3.748;2023-01-29T00:18:28;2.70;99.90
29721;DHT22;23665;51.044;3.748;2023-01-29T00:20:54;2.70;99.90
29721;DHT22;23665;51.044;3.748;2023-01-29T00:23:20;2.60;99.90
29721;DHT22;23665;51.044;3.748;2023-01-29T00:25:46;2.40;99.90
29721;DHT22;23665;51.044;3.748;2023-01-29T00:28:12;2.50;99.90
29721;DHT22;23665;51.044;3.748;2023-01-29T00:30:38;2.40;99.90
29721;DHT22;23665;51.044;3.748;2023-01-29T00:33:04;2.50;99.90
29721;DHT22;23665;51.044;3.748;2023-01-29T00:35:30;2.50;99.90
29721;DHT22;23665;51.044;3.748;2023-01-29T00:37:57;2.40;99.90
29721;DHT22;23665;51.044;3.748;2023-01-29T00:40:24;2.40;99.90
29721;DHT22;23665;51.044;3.748;2023-01-29T00:42:50;2.40;99.90
29721;DHT22;23665;51.044;3.748;2023-01-29T00:45:34;2.20;99.90
29721;DHT22;23665;51.044;3.748;2023-01-29T00:48:04;2.20;99.90
29721;DHT22;23665;51.044;3.748;2023-01-29T00:50:30;2.30;99.90
29721;DHT22;23665;51.044;3.748;2023-01-29T00:52:56;2.50;99.90
29721;DHT22;23665;51.044;3.748;2023-01-29T00:55:22;2.60;99.90
29721;DHT22;23665;51.044;3.748;2023-01-29T00:57:48;2.40;99.90
29721;DHT22;23665;51.044;3.748;2023-01-29T01:00:16;2.30;99.90
29721;DHT22;23665;51.044;3.748;2023-01-29T01:02:43;2.30;99.90
29721;DHT22;23665;51.044;3.748;2023-01-29T01:05:28;2.40;99.90
29721;DHT22;23665;51.044;3.748;2023-01-29T01:07:56;2.50;99.90
29721;DHT22;23665;51.044;3.748;2023-01-29T01:10:25;2.70;99.90
29721;DHT22;23665;51.044;3.748;2023-01-29T01:13:00;2.80;99.90
29721;DHT22;23665;51.044;3.748;2023-01-29T01:15:32;2.70;99.90
29721;DHT22;23665;51.044;3.748;2023-01-29T01:18:00;2.60;99.90
29721;DHT22;23665;51.044;3.748;2023-01-29T01:20:28;2.70;99.90
29721;DHT22;23665;51.044;3.748;2023-01-29T01:22:56;2.70;99.90
29721;DHT22;23665;51.044;3.748;2023-01-29T01:25:23;2.60;99.90
29721;DHT22;23665;51.044;3.748;2023-01-29T01:27:55;2.70;99.90
29721;DHT22;23665;51.044;3.748;2023-01-29T01:30:22;2.80;99.90
29721;DHT22;23665;51.044;3.748;2023-01-29T01:32:48;2.90;99.90
29721;DHT22;23665;51.044;3.748;2023-01-29T01:35:14;3.00;99.90
29721;DHT22;23665;51.044;3.748;2023-01-29T01:37:40;2.80;99.90
29721;DHT22;23665;51.044;3.748;2023-01-29T01:40:18;2.90;99.90
29721;DHT22;23665;51.044;3.748;2023-01-29T01:42:48;3.00;99.90
29721;DHT22;23665;51.044;3.748;2023-01-29T01:48:03;2.90;99.90
29721;DHT22;23665;51.044;3.748;2023-01-29T01:50:41;2.90;99.90
29721;DHT22;23665;51.044;3.748;2023-01-29T01:53:13;2.90;99.90
29721;DHT22;23665;51.044;3.748;2023-01-29T01:55:52;3.20;99.90
29721;DHT22;23665;51.044;3.748;2023-01-29T01:58:26;3.20;99.90
29721;DHT22;23665;51.044;3.748;2023-01-29T02:00:54;3.10;99.90
29721;DHT22;23665;51.044;3.748;2023-01-29T02:03:21;3.10;99.90
29721;DHT22;23665;51.044;3.748;2023-01-29T02:06:07;3.20;99.90
29721;DHT22;23665;51.044;3.748;2023-01-29T02:08:59;3.30;99.90
29721;DHT22;23665;51.044;3.748;2023-01-29T02:11:45;3.30;99.90
29721;DHT22;23665;51.044;3.748;2023-01-29T02:14:11;3.20;99.90
29721;DHT22;23665;51.044;3.748;2023-01-29T02:16:37;3.20;99.90
29721;DHT22;23665;51.044;3.748;2023-01-29T02:19:07;3.40;99.90
29721;DHT22;23665;51.044;3.748;2023-01-29T02:21:51;3.30;99.90
29721;DHT22;23665;51.044;3.748;2023-01-29T02:27:15;3.50;99.90
29721;DHT22;23665;51.044;3.748;2023-01-29T02:30:16;3.50;99.90
29721;DHT22;23665;51.044;3.748;2023-01-29T02:35:25;3.50;99.90
29721;DHT22;23665;51.044;3.748;2023-01-29T02:40:37;3.50;99.90
29721;DHT22;23665;51.044;3.748;2023-01-29T02:46:15;3.60;99.50
29721;DHT22;23665;51.044;3.748;2023-01-29T02:49:20;3.60;99.90
29721;DHT22;23665;51.044;3.748;2023-01-29T02:54:29;3.80;92.60
29721;DHT22;23665;51.044;3.748;2023-01-29T02:56:59;3.80;92.10
29721;DHT22;23665;51.044;3.748;2023-01-29T02:59:55;4.00;91.00
29721;DHT22;23665;51.044;3.748;2023-01-29T03:02:34;4.10;84.80
29721;DHT22;23665;51.044;3.748;2023-01-29T03:05:10;4.00;80.40
29721;DHT22;23665;51.044;3.748;2023-01-29T03:07:40;4.00;82.40
29721;DHT22;23665;51.044;3.748;2023-01-29T03:10:34;3.90;92.80
29721;DHT22;23665;51.044;3.748;2023-01-29T03:13:05;4.00;90.00
29721;DHT22;23665;51.044;3.748;2023-01-29T03:15:46;3.90;93.60
29721;DHT22;23665;51.044;3.748;2023-01-29T03:18:21;3.70;97.50
29721;DHT22;23665;51.044;3.748;2023-01-29T03:20:55;3.70;99.90
29721;DHT22;23665;51.044;3.748;2023-01-29T03:23:32;3.80;99.90
29721;DHT22;23665;51.044;3.748;2023-01-29T03:26:20;3.80;99.70
29721;DHT22;23665;51.044;3.748;2023-01-29T03:29:06;3.70;99.90
29721;DHT22;23665;51.044;3.748;2023-01-29T03:31:54;3.80;99.90
29721;DHT22;23665;51.044;3.748;2023-01-29T03:34:53;3.90;99.90
29721;DHT22;23665;51.044;3.748;2023-01-29T03:37:31;4.00;97.90
29721;DHT22;23665;51.044;3.748;2023-01-29T03:40:00;4.00;91.00
29721;DHT22;23665;51.044;3.748;2023-01-29T03:58:39;3.90;97.60
29721;DHT22;23665;51.044;3.748;2023-01-29T04:01:28;3.90;96.20
29721;DHT22;23665;51.044;3.748;2023-01-29T04:06:36;3.70;99.90
29721;DHT22;23665;51.044;3.748;2023-01-29T04:09:10;3.80;99.90
29721;DHT22;23665;51.044;3.748;2023-01-29T04:11:41;3.90;99.90
29721;DHT22;23665;51.044;3.748;2023-01-29T04:14:08;3.90;99.50
29721;DHT22;23665;51.044;3.748;2023-01-29T04:16:38;4.10;85.30
29721;DHT22;23665;51.044;3.748;2023-01-29T04:19:05;4.20;85.90
29721;DHT22;23665;51.044;3.748;2023-01-29T04:21:31;4.20;82.00
29721;DHT22;23665;51.044;3.748;2023-01-29T04:23:57;4.10;81.30
29721;DHT22;23665;51.044;3.748;2023-01-29T04:32:25;3.90;93.40
29721;DHT22;23665;51.044;3.748;2023-01-29T04:35:57;3.90;93.40
29721;DHT22;23665;51.044;3.748;2023-01-29T04:38:39;4.00;91.80
29721;DHT22;23665;51.044;3.748;2023-01-29T04:43:28;4.10;87.30
29721;DHT22;23665;51.044;3.748;2023-01-29T04:48:31;4.30;84.60
29721;DHT22;23665;51.044;3.748;2023-01-29T04:51:42;4.10;89.10
29721;DHT22;23665;51.044;3.748;2023-01-29T04:54:08;4.20;93.40
29721;DHT22;23665;51.044;3.748;2023-01-29T04:59:20;4.30;89.60
29721;DHT22;23665;51.044;3.748;2023-01-29T05:01:47;4.40;79.20
29721;DHT22;23665;51.044;3.748;2023-01-29T05:04:15;4.30;88.20
29721;DHT22;23665;51.044;3.748;2023-01-29T05:06:44;4.30;88.60
29721;DHT22;23665;51.044;3.748;2023-01-29T05:09:13;4.40;85.70
29721;DHT22;23665;51.044;3.748;2023-01-29T05:11:41;4.40;84.00
29721;DHT22;23665;51.044;3.748;2023-01-29T05:14:10;4.40;84.70
29721;DHT22;23665;51.044;3.748;2023-01-29T05:16:43;4.70;75.10
29721;DHT22;23665;51.044;3.748;2023-01-29T05:19:11;4.70;66.90
29721;DHT22;23665;51.044;3.748;2023-01-29T05:21:39;4.60;68.60
29721;DHT22;23665;51.044;3.748;2023-01-29T05:24:17;4.60;71.40
29721;DHT22;23665;51.044;3.748;2023-01-29T05:26:45;4.70;64.50
29721;DHT22;23665;51.044;3.748;2023-01-29T05:29:30;4.60;60.20
29721;DHT22;23665;51.044;3.748;2023-01-29T05:31:55;4.40;74.60
29721;DHT22;23665;51.044;3.748;2023-01-29T05:34:21;4.50;74.30
29721;DHT22;23665;51.044;3.748;2023-01-29T05:36:47;4.60;69.30
29721;DHT22;23665;51.044;3.748;2023-01-29T05:39:12;4.30;78.50
29721;DHT22;23665;51.044;3.748;2023-01-29T05:41:38;4.40;75.50
29721;DHT22;23665;51.044;3.748;2023-01-29T05:44:04;4.20;86.10
29721;DHT22;23665;51.044;3.748;2023-01-29T05:46:30;4.30;89.00
29721;DHT22;23665;51.044;3.748;2023-01-29T05:48:55;4.40;82.70
29721;DHT22;23665;51.044;3.748;2023-01-29T05:51:21;4.40;85.00
29721;DHT22;23665;51.044;3.748;2023-01-29T05:53:47;4.40;80.30
29721;DHT22;23665;51.044;3.748;2023-01-29T05:56:13;4.30;82.60
29721;DHT22;23665;51.044;3.748;2023-01-29T05:58:39;4.30;88.40
29721;DHT22;23665;51.044;3.748;2023-01-29T06:01:16;4.30;88.00
29721;DHT22;23665;51.044;3.748;2023-01-29T06:03:43;4.20;87.80
29721;DHT22;23665;51.044;3.748;2023-01-29T06:06:09;4.40;85.70
29721;DHT22;23665;51.044;3.748;2023-01-29T06:08:34;4.40;84.70
29721;DHT22;23665;51.044;3.748;2023-01-29T06:11:00;4.40;83.60
29721;DHT22;23665;51.044;3.748;2023-01-29T06:13:26;4.40;84.20
29721;DHT22;23665;51.044;3.748;2023-01-29T06:15:51;4.30;90.10
29721;DHT22;23665;51.044;3.748;2023-01-29T06:18:17;4.10;94.00
29721;DHT22;23665;51.044;3.748;2023-01-29T06:20:43;4.10;93.50
29721;DHT22;23665;51.044;3.748;2023-01-29T06:23:08;4.10;95.70
29721;DHT22;23665;51.044;3.748;2023-01-29T06:25:34;4.00;96.70
29721;DHT22;23665;51.044;3.748;2023-01-29T06:28:00;3.80;99.50
29721;DHT22;23665;51.044;3.748;2023-01-29T06:30:26;3.60;99.90
29721;DHT22;23665;51.044;3.748;2023-01-29T06:32:58;3.60;99.90
29721;DHT22;23665;51.044;3.748;2023-01-29T06:35:26;3.60;99.90
29721;DHT22;23665;51.044;3.748;2023-01-29T06:37:52;3.60;99.90
29721;DHT22;23665;51.044;3.748;2023-01-29T06:40:18;3.70;99.90
29721;DHT22;23665;51.044;3.748;2023-01-29T06:42:44;3.80;99.90
29721;DHT22;23665;51.044;3.748;2023-01-29T06:45:10;3.80;99.90
29721;DHT22;23665;51.044;3.748;2023-01-29T06:47:35;3.70;99.90
29721;DHT22;23665;51.044;3.748;2023-01-29T06:50:02;3.70;99.90
29721;DHT22;23665;51.044;3.748;2023-01-29T06:52:28;3.80;99.90
29721;DHT22;23665;51.044;3.748;2023-01-29T06:54:54;3.90;97.60
29721;DHT22;23665;51.044;3.748;2023-01-29T06:57:21;4.10;95.20
29721;DHT22;23665;51.044;3.748;2023-01-29T06:59:47;4.10;91.80
29721;DHT22;23665;51.044;3.748;2023-01-29T07:02:13;4.20;86.40
29721;DHT22;23665;51.044;3.748;2023-01-29T07:04:38;4.20;81.80
29721;DHT22;23665;51.044;3.748;2023-01-29T07:07:06;4.20;83.50
29721;DHT22;23665;51.044;3.748;2023-01-29T07:09:41;4.20;86.80
29721;DHT22;23665;51.044;3.748;2023-01-29T07:12:07;4.30;84.80
29721;DHT22;23665;51.044;3.748;2023-01-29T07:14:33;4.20;88.30
29721;DHT22;23665;51.044;3.748;2023-01-29T07:16:59;4.20;85.50
29721;DHT22;23665;51.044;3.748;2023-01-29T07:19:24;4.40;83.30
29721;DHT22;23665;51.044;3.748;2023-01-29T07:21:50;4.60;67.50
29721;DHT22;23665;51.044;3.748;2023-01-29T07:24:16;4.60;61.90
29721;DHT22;23665;51.044;3.748;2023-01-29T07:26:42;4.60;64.70
29721;DHT22;23665;51.044;3.748;2023-01-29T07:29:07;4.60;62.10
29721;DHT22;23665;51.044;3.748;2023-01-29T07:31:33;4.60;65.10
29721;DHT22;23665;51.044;3.748;2023-01-29T07:33:59;4.60;62.70
29721;DHT22;23665;51.044;3.748;2023-01-29T07:36:24;4.60;62.30
29721;DHT22;23665;51.044;3.748;2023-01-29T07:38:51;4.60;63.60
29721;DHT22;23665;51.044;3.748;2023-01-29T07:41:17;4.60;69.10
29721;DHT22;23665;51.044;3.748;2023-01-29T07:43:43;4.40;74.00
29721;DHT22;23665;51.044;3.748;2023-01-29T07:46:08;4.30;83.10
29721;DHT22;23665;51.044;3.748;2023-01-29T07:48:34;4.40;80.00
29721;DHT22;23665;51.044;3.748;2023-01-29T07:51:00;4.50;78.90
29721;DHT22;23665;51.044;3.748;2023-01-29T07:53:26;4.50;76.50
29721;DHT22;23665;51.044;3.748;2023-01-29T07:55:52;4.60;76.10
29721;DHT22;23665;51.044;3.748;2023-01-29T07:58:18;4.50;73.80
29721;DHT22;23665;51.044;3.748;2023-01-29T08:00:44;4.50;77.40
29721;DHT22;23665;51.044;3.748;2023-01-29T08:03:12;4.60;73.20
29721;DHT22;23665;51.044;3.748;2023-01-29T08:05:40;4.60;71.10
29721;DHT22;23665;51.044;3.748;2023-01-29T08:08:06;4.60;70.20
29721;DHT22;23665;51.044;3.748;2023-01-29T08:10:32;4.70;67.00
29721;DHT22;23665;51.044;3.748;2023-01-29T08:12:59;4.60;72.90
29721;DHT22;23665;51.044;3.748;2023-01-29T08:15:25;4.60;69.90
29721;DHT22;23665;51.044;3.748;2023-01-29T08:17:52;4.60;69.30
29721;DHT22;23665;51.044;3.748;2023-01-29T08:20:18;4.50;70.90
29721;DHT22;23665;51.044;3.748;2023-01-29T08:22:44;4.60;70.90
29721;DHT22;23665;51.044;3.748;2023-01-29T08:25:11;4.70;67.80
29721;DHT22;23665;51.044;3.748;2023-01-29T08:27:37;4.60;69.40
29721;DHT22;23665;51.044;3.748;2023-01-29T08:30:04;4.50;72.80
29721;DHT22;23665;51.044;3.748;2023-01-29T08:32:30;4.50;76.00
29721;DHT22;23665;51.044;3.748;2023-01-29T08:34:55;4.50;73.80
29721;DHT22;23665;51.044;3.748;2023-01-29T08:37:21;4.50;75.80
29721;DHT22;23665;51.044;3.748;2023-01-29T08:39:47;4.60;71.60
29721;DHT22;23665;51.044;3.748;2023-01-29T08:42:12;4.60;66.60
29721;DHT22;23665;51.044;3.748;2023-01-29T08:44:38;4.60;65.80
29721;DHT22;23665;51.044;3.748;2023-01-29T08:47:04;4.70;64.40
29721;DHT22;23665;51.044;3.748;2023-01-29T08:49:30;4.70;62.80
29721;DHT22;23665;51.044;3.748;2023-01-29T08:51:55;4.80;63.60
29721;DHT22;23665;51.044;3.748;2023-01-29T08:54:22;4.90;54.00
29721;DHT22;23665;51.044;3.748;2023-01-29T08:56:48;4.80;57.80
29721;DHT22;23665;51.044;3.748;2023-01-29T08:59:14;5.10;56.70
29721;DHT22;23665;51.044;3.748;2023-01-29T09:01:40;5.30;42.20
29721;DHT22;23665;51.044;3.748;2023-01-29T09:04:06;5.40;33.70
29721;DHT22;23665;51.044;3.748;2023-01-29T09:06:33;5.40;38.10
29721;DHT22;23665;51.044;3.748;2023-01-29T09:08:59;5.20;31.50
29721;DHT22;23665;51.044;3.748;2023-01-29T09:11:25;5.30;36.60
29721;DHT22;23665;51.044;3.748;2023-01-29T09:13:50;5.30;39.20
29721;DHT22;23665;51.044;3.748;2023-01-29T09:16:16;5.30;45.60
29721;DHT22;23665;51.044;3.748;2023-01-29T09:18:42;5.30;37.10
29721;DHT22;23665;51.044;3.748;2023-01-29T09:21:08;5.30;42.40
29721;DHT22;23665;51.044;3.748;2023-01-29T09:23:33;5.10;43.80
29721;DHT22;23665;51.044;3.748;2023-01-29T09:25:59;5.00;50.70
29721;DHT22;23665;51.044;3.748;2023-01-29T09:28:25;5.00;52.00
29721;DHT22;23665;51.044;3.748;2023-01-29T09:30:51;4.90;54.90
29721;DHT22;23665;51.044;3.748;2023-01-29T09:33:16;4.90;60.80
29721;DHT22;23665;51.044;3.748;2023-01-29T09:35:43;5.10;53.10
29721;DHT22;23665;51.044;3.748;2023-01-29T09:38:11;5.20;53.90
29721;DHT22;23665;51.044;3.748;2023-01-29T09:43:23;4.90;58.70
29721;DHT22;23665;51.044;3.748;2023-01-29T09:45:59;5.10;51.80
29721;DHT22;23665;51.044;3.748;2023-01-29T09:48:28;5.00;55.70
29721;DHT22;23665;51.044;3.748;2023-01-29T09:50:57;4.90;60.40
29721;DHT22;23665;51.044;3.748;2023-01-29T09:53:38;5.00;60.50
29721;DHT22;23665;51.044;3.748;2023-01-29T09:56:13;5.20;50.90
29721;DHT22;23665;51.044;3.748;2023-01-29T09:58:42;5.10;52.30
29721;DHT22;23665;51.044;3.748;2023-01-29T10:10:17;5.40;46.40
29721;DHT22;23665;51.044;3.748;2023-01-29T10:23:49;5.50;45.30
29721;DHT22;23665;51.044;3.748;2023-01-29T10:26:24;5.60;41.30
29721;DHT22;23665;51.044;3.748;2023-01-29T10:28:51;5.60;33.80
29721;DHT22;23665;51.044;3.748;2023-01-29T10:31:29;5.60;33.80
29721;DHT22;23665;51.044;3.748;2023-01-29T10:34:00;5.80;32.40
29721;DHT22;23665;51.044;3.748;2023-01-29T10:38:58;5.90;22.40
29721;DHT22;23665;51.044;3.748;2023-01-29T10:44:16;6.00;21.80
29721;DHT22;23665;51.044;3.748;2023-01-29T10:58:35;6.10;27.20
29721;DHT22;23665;51.044;3.748;2023-01-29T11:01:02;6.00;26.80
29721;DHT22;23665;51.044;3.748;2023-01-29T11:03:32;6.00;24.20
29721;DHT22;23665;51.044;3.748;2023-01-29T11:08:55;6.00;35.50
29721;DHT22;23665;51.044;3.748;2023-01-29T11:14:41;6.20;26.50
29721;DHT22;23665;51.044;3.748;2023-01-29T11:17:15;6.20;18.60
29721;DHT22;23665;51.044;3.748;2023-01-29T11:19:43;6.10;23.70
29721;DHT22;23665;51.044;3.748;2023-01-29T11:22:16;6.00;24.40
29721;DHT22;23665;51.044;3.748;2023-01-29T11:24:44;6.10;23.20
29721;DHT22;23665;51.044;3.748;2023-01-29T11:27:32;6.30;19.80
29721;DHT22;23665;51.044;3.748;2023-01-29T11:30:00;6.20;19.50
29721;DHT22;23665;51.044;3.748;2023-01-29T11:32:29;6.20;18.30
29721;DHT22;23665;51.044;3.748;2023-01-29T11:37:23;6.30;10.70
29721;DHT22;23665;51.044;3.748;2023-01-29T11:39:55;6.30;1.10
29721;DHT22;23665;51.044;3.748;2023-01-29T11:42:22;6.40;1.00
29721;DHT22;23665;51.044;3.748;2023-01-29T11:44:48;6.40;5.30
29721;DHT22;23665;51.044;3.748;2023-01-29T11:47:28;6.60;1.70
29721;DHT22;23665;51.044;3.748;2023-01-29T11:49:56;6.60;1.00
29721;DHT22;23665;51.044;3.748;2023-01-29T11:52:39;6.50;1.00
29721;DHT22;23665;51.044;3.748;2023-01-29T11:57:42;6.50;1.00
29721;DHT22;23665;51.044;3.748;2023-01-29T12:00:28;6.30;1.00
29721;DHT22;23665;51.044;3.748;2023-01-29T12:03:00;6.40;8.00
29721;DHT22;23665;51.044;3.748;2023-01-29T12:05:29;6.30;3.30
29721;DHT22;23665;51.044;3.748;2023-01-29T12:07:56;6.60;1.80
29721;DHT22;23665;51.044;3.748;2023-01-29T12:15:46;6.70;1.00
29721;DHT22;23665;51.044;3.748;2023-01-29T12:23:37;6.40;1.00
29721;DHT22;23665;51.044;3.748;2023-01-29T12:26:09;6.30;6.70
29721;DHT22;23665;51.044;3.748;2023-01-29T12:31:16;6.60;1.80
29721;DHT22;23665;51.044;3.748;2023-01-29T12:39:18;6.40;11.40
29721;DHT22;23665;51.044;3.748;2023-01-29T12:44:31;6.70;1.00
29721;DHT22;23665;51.044;3.748;2023-01-29T12:46:59;6.70;1.00
29721;DHT22;23665;51.044;3.748;2023-01-29T12:49:29;6.60;1.00
29721;DHT22;23665;51.044;3.748;2023-01-29T12:54:36;6.50;8.00
29721;DHT22;23665;51.044;3.748;2023-01-29T12:57:08;6.50;11.00
29721;DHT22;23665;51.044;3.748;2023-01-29T12:59:41;6.60;11.10
29721;DHT22;23665;51.044;3.748;2023-01-29T13:02:21;6.40;12.60
29721;DHT22;23665;51.044;3.748;2023-01-29T13:07:41;6.70;14.60
29721;DHT22;23665;51.044;3.748;2023-01-29T13:10:19;6.50;16.30
29721;DHT22;23665;51.044;3.748;2023-01-29T13:13:04;6.50;16.00
29721;DHT22;23665;51.044;3.748;2023-01-29T13:15:37;6.40;19.30
29721;DHT22;23665;51.044;3.748;2023-01-29T13:21:13;6.40;19.40
29721;DHT22;23665;51.044;3.748;2023-01-29T13:23:46;6.50;30.30
29721;DHT22;23665;51.044;3.748;2023-01-29T13:26:17;6.40;19.30
29721;DHT22;23665;51.044;3.748;2023-01-29T13:28:44;6.30;29.20
29721;DHT22;23665;51.044;3.748;2023-01-29T13:33:36;6.40;30.70
29721;DHT22;23665;51.044;3.748;2023-01-29T13:36:03;6.50;26.10
29721;DHT22;23665;51.044;3.748;2023-01-29T13:38:32;6.40;28.30
29721;DHT22;23665;51.044;3.748;2023-01-29T13:41:04;6.70;23.20
29721;DHT22;23665;51.044;3.748;2023-01-29T13:43:35;6.60;18.30
29721;DHT22;23665;51.044;3.748;2023-01-29T13:46:14;6.50;27.30
29721;DHT22;23665;51.044;3.748;2023-01-29T13:48:44;6.40;32.90
29721;DHT22;23665;51.044;3.748;2023-01-29T13:51:18;6.40;41.50
29721;DHT22;23665;51.044;3.748;2023-01-29T13:54:05;6.50;30.00
29721;DHT22;23665;51.044;3.748;2023-01-29T13:59:00;6.30;41.10
29721;DHT22;23665;51.044;3.748;2023-01-29T14:02:02;6.40;45.90
29721;DHT22;23665;51.044;3.748;2023-01-29T14:04:32;6.30;41.90
29721;DHT22;23665;51.044;3.748;2023-01-29T14:07:00;6.30;46.90
29721;DHT22;23665;51.044;3.748;2023-01-29T14:10:07;6.60;37.40
29721;DHT22;23665;51.044;3.748;2023-01-29T14:12:36;6.60;33.60
29721;DHT22;23665;51.044;3.748;2023-01-29T14:15:14;6.60;29.10
29721;DHT22;23665;51.044;3.748;2023-01-29T14:17:54;6.50;36.80
29721;DHT22;23665;51.044;3.748;2023-01-29T14:20:23;6.50;34.20
29721;DHT22;23665;51.044;3.748;2023-01-29T14:22:56;6.30;47.90
29721;DHT22;23665;51.044;3.748;2023-01-29T14:25:31;6.30;42.60
29721;DHT22;23665;51.044;3.748;2023-01-29T14:27:59;6.40;46.40
29721;DHT22;23665;51.044;3.748;2023-01-29T14:30:31;6.20;53.90
29721;DHT22;23665;51.044;3.748;2023-01-29T14:32:59;6.30;47.90
29721;DHT22;23665;51.044;3.748;2023-01-29T14:35:28;6.20;56.10
29721;DHT22;23665;51.044;3.748;2023-01-29T14:38:02;6.30;53.20
29721;DHT22;23665;51.044;3.748;2023-01-29T14:40:29;6.40;59.50
29721;DHT22;23665;51.044;3.748;2023-01-29T14:43:07;6.50;48.60
29721;DHT22;23665;51.044;3.748;2023-01-29T14:45:45;6.50;46.00
29721;DHT22;23665;51.044;3.748;2023-01-29T14:50:40;6.30;52.90
29721;DHT22;23665;51.044;3.748;2023-01-29T14:58:33;6.50;56.30
29721;DHT22;23665;51.044;3.748;2023-01-29T15:01:01;6.40;55.50
29721;DHT22;23665;51.044;3.748;2023-01-29T15:03:34;6.50;55.60
29721;DHT22;23665;51.044;3.748;2023-01-29T15:06:05;6.40;65.40
29721;DHT22;23665;51.044;3.748;2023-01-29T15:08:40;6.40;56.90
29721;DHT22;23665;51.044;3.748;2023-01-29T15:11:21;6.40;65.20
29721;DHT22;23665;51.044;3.748;2023-01-29T15:16:47;6.30;72.30
29721;DHT22;23665;51.044;3.748;2023-01-29T15:19:28;6.40;64.20
29721;DHT22;23665;51.044;3.748;2023-01-29T15:22:03;6.20;70.50
29721;DHT22;23665;51.044;3.748;2023-01-29T15:24:29;6.10;77.50
29721;DHT22;23665;51.044;3.748;2023-01-29T15:26:55;6.00;85.00
29721;DHT22;23665;51.044;3.748;2023-01-29T15:29:23;6.20;77.80
29721;DHT22;23665;51.044;3.748;2023-01-29T15:31:50;6.10;88.40
29721;DHT22;23665;51.044;3.748;2023-01-29T15:34:16;6.10;86.90
29721;DHT22;23665;51.044;3.748;2023-01-29T15:36:42;6.10;89.30
29721;DHT22;23665;51.044;3.748;2023-01-29T15:39:19;6.20;83.00
29721;DHT22;23665;51.044;3.748;2023-01-29T15:41:46;6.10;86.00
29721;DHT22;23665;51.044;3.748;2023-01-29T15:44:14;6.10;88.30
29721;DHT22;23665;51.044;3.748;2023-01-29T15:46:54;6.10;87.20
29721;DHT22;23665;51.044;3.748;2023-01-29T15:49:32;6.00;89.80
29721;DHT22;23665;51.044;3.748;2023-01-29T15:52:03;6.00;92.90
29721;DHT22;23665;51.044;3.748;2023-01-29T15:54:31;6.10;91.40
29721;DHT22;23665;51.044;3.748;2023-01-29T15:56:58;6.10;91.80
29721;DHT22;23665;51.044;3.748;2023-01-29T15:59:26;6.10;91.40
29721;DHT22;23665;51.044;3.748;2023-01-29T16:01:53;6.20;88.40
29721;DHT22;23665;51.044;3.748;2023-01-29T16:04:26;6.10;92.20
29721;DHT22;23665;51.044;3.748;2023-01-29T16:06:54;6.20;91.40
29721;DHT22;23665;51.044;3.748;2023-01-29T16:09:25;6.10;91.50
29721;DHT22;23665;51.044;3.748;2023-01-29T16:11:52;6.10;92.90
29721;DHT22;23665;51.044;3.748;2023-01-29T16:14:23;6.20;90.00
29721;DHT22;23665;51.044;3.748;2023-01-29T16:16:50;6.00;96.20
29721;DHT22;23665;51.044;3.748;2023-01-29T16:19:28;6.00;98.40
29721;DHT22;23665;51.044;3.748;2023-01-29T16:22:00;6.10;97.30
29721;DHT22;23665;51.044;3.748;2023-01-29T16:24:26;6.10;98.30
29721;DHT22;23665;51.044;3.748;2023-01-29T16:27:05;6.20;95.90
29721;DHT22;23665;51.044;3.748;2023-01-29T16:29:33;6.10;95.40
29721;DHT22;23665;51.044;3.748;2023-01-29T16:32:01;5.90;99.60
29721;DHT22;23665;51.044;3.748;2023-01-29T16:34:29;5.90;99.90
29721;DHT22;23665;51.044;3.748;2023-01-29T16:36:56;5.90;99.90
29721;DHT22;23665;51.044;3.748;2023-01-29T16:39:25;5.80;99.90
29721;DHT22;23665;51.044;3.748;2023-01-29T16:47:33;5.70;99.90
29721;DHT22;23665;51.044;3.748;2023-01-29T16:52:31;5.80;99.90
29721;DHT22;23665;51.044;3.748;2023-01-29T16:55:23;5.80;99.90
29721;DHT22;23665;51.044;3.748;2023-01-29T16:57:54;5.70;99.90
29721;DHT22;23665;51.044;3.748;2023-01-29T17:00:25;5.70;99.90
29721;DHT22;23665;51.044;3.748;2023-01-29T17:02:55;5.70;99.90
29721;DHT22;23665;51.044;3.748;2023-01-29T17:05:29;5.60;99.90
29721;DHT22;23665;51.044;3.748;2023-01-29T17:07:56;5.60;99.90
29721;DHT22;23665;51.044;3.748;2023-01-29T17:10:24;5.70;99.90
29721;DHT22;23665;51.044;3.748;2023-01-29T17:15:45;5.70;99.90
29721;DHT22;23665;51.044;3.748;2023-01-29T17:18:20;5.70;99.90
29721;DHT22;23665;51.044;3.748;2023-01-29T17:20:46;5.70;99.90
29721;DHT22;23665;51.044;3.748;2023-01-29T17:23:12;5.60;99.90
29721;DHT22;23665;51.044;3.748;2023-01-29T17:25:38;5.60;99.90
29721;DHT22;23665;51.044;3.748;2023-01-29T17:28:04;5.70;99.90
29721;DHT22;23665;51.044;3.748;2023-01-29T17:30:31;5.60;99.90
29721;DHT22;23665;51.044;3.748;2023-01-29T17:33:12;5.50;99.90
29721;DHT22;23665;51.044;3.748;2023-01-29T17:35:38;5.50;99.90
29721;DHT22;23665;51.044;3.748;2023-01-29T17:38:11;5.70;99.90
29721;DHT22;23665;51.044;3.748;2023-01-29T17:43:03;5.60;99.90
29721;DHT22;23665;51.044;3.748;2023-01-29T17:45:29;5.50;99.90
29721;DHT22;23665;51.044;3.748;2023-01-29T17:47:55;5.60;99.90
29721;DHT22;23665;51.044;3.748;2023-01-29T17:50:23;5.60;99.90
29721;DHT22;23665;51.044;3.748;2023-01-29T17:52:49;5.60;99.90
29721;DHT22;23665;51.044;3.748;2023-01-29T17:55:16;5.60;99.90
29721;DHT22;23665;51.044;3.748;2023-01-29T17:57:41;5.60;99.90
29721;DHT22;23665;51.044;3.748;2023-01-29T18:02:38;5.60;99.90
29721;DHT22;23665;51.044;3.748;2023-01-29T18:05:04;5.60;99.90
29721;DHT22;23665;51.044;3.748;2023-01-29T18:07:30;5.60;99.90
29721;DHT22;23665;51.044;3.748;2023-01-29T18:09:56;5.60;99.90
29721;DHT22;23665;51.044;3.748;2023-01-29T18:12:21;5.70;99.90
29721;DHT22;23665;51.044;3.748;2023-01-29T18:14:47;5.70;99.90
29721;DHT22;23665;51.044;3.748;2023-01-29T18:17:12;5.80;99.90
29721;DHT22;23665;51.044;3.748;2023-01-29T18:19:40;5.80;99.90
29721;DHT22;23665;51.044;3.748;2023-01-29T18:22:06;5.80;99.90
29721;DHT22;23665;51.044;3.748;2023-01-29T18:24:32;5.80;99.90
29721;DHT22;23665;51.044;3.748;2023-01-29T18:26:58;5.80;99.90
29721;DHT22;23665;51.044;3.748;2023-01-29T18:29:24;5.90;99.90
29721;DHT22;23665;51.044;3.748;2023-01-29T18:31:54;6.00;99.90
29721;DHT22;23665;51.044;3.748;2023-01-29T18:34:20;5.90;99.90
29721;DHT22;23665;51.044;3.748;2023-01-29T18:36:46;5.90;99.90
29721;DHT22;23665;51.044;3.748;2023-01-29T18:39:13;6.00;99.90
29721;DHT22;23665;51.044;3.748;2023-01-29T18:41:39;5.80;99.90
29721;DHT22;23665;51.044;3.748;2023-01-29T18:44:04;5.80;99.90
29721;DHT22;23665;51.044;3.748;2023-01-29T18:46:30;5.80;99.90
29721;DHT22;23665;51.044;3.748;2023-01-29T18:48:56;5.80;99.90